Home   Weather   Spain   Torrevieja   Past weeks
Flag for Spain

Past Weather in Torrevieja, Alicante, Spain — Yesterday and Last 2 Weeks

Currently: 79 °F. Partly sunny. (Weather station: Murcia / San Javier, Spain). See more current weather

Past Weather in Torrevieja — Graph

°F

Torrevieja Temperature Yesterday

Maximum temperature yesterday: 84 °F (at 11:30 am)
Minimum temperature yesterday: 64 °F (at 6:30 am)
Average temperature yesterday: 76 °F

High & Low Weather Summary for the Past Weeks

 TemperatureHumidityPressure
High84 °F (Jun 15, 10:30 am)100% (Jun 10, 7:30 am)30.18 "Hg (Jun 10, 7:30 am)
Low61 °F (Jun 11, 6:30 am)29% (Jun 22, 11:30 am)29.77 "Hg (Jun 17, 7:30 am)
Average75 °F68%29.97 "Hg
* Reported Jun 8 2:00 pm — Jun 23 2:30 pm, Torrevieja. Weather by CustomWeather, © 2021

Note: Actual official high and low records may vary slightly from our data, if they occured in-between our weather recording intervals... More about our weather records

Torrevieja Weather History for the Previous 24 Hours

Scroll right to see more
 ConditionsComfort  
Time TempWeatherWind HumidityBarometerVisibility
2:30 pm
Wed, Jun 23
79 °FPartly sunny.9 mph65%30.04 "HgN/A
2:00 pm79 °FPartly sunny.8 mph61%30.01 "HgN/A
1:30 pm79 °FScattered clouds.8 mph61%30.01 "HgN/A
1:00 pm79 °FPassing clouds.8 mph61%30.01 "HgN/A
12:30 pm77 °FScattered clouds.8 mph65%30.04 "HgN/A
12:00 pm77 °FPassing clouds.7 mph65%30.01 "HgN/A
11:30 am75 °FPassing clouds.7 mph69%30.01 "HgN/A
11:00 am75 °FPassing clouds.8 mph65%30.01 "HgN/A
10:30 am75 °FPassing clouds.8 mph65%30.01 "HgN/A
10:00 am75 °FPassing clouds.9 mph69%30.01 "HgN/A
9:30 am73 °FPassing clouds.7 mph74%30.01 "HgN/A
9:00 am73 °FPassing clouds.6 mph74%30.01 "HgN/A
8:30 am70 °FScattered clouds.5 mph83%29.98 "HgN/A
8:00 am68 °FScattered clouds.3 mph88%29.98 "HgN/A
7:30 am66 °FPassing clouds.6 mph94%29.98 "HgN/A
7:00 am64 °FPassing clouds.5 mph88%29.98 "HgN/A
6:30 am63 °FClear.5 mph88%29.98 "Hg10 mi
6:00 am61 °FCool.2 mph94%29.98 "HgN/A
4:30 am63 °FMild.5 mph88%29.95 "Hg6 mi
4:00 am63 °FMild.7 mph88%29.95 "Hg6 mi
3:30 am63 °FClear.6 mph83%29.95 "Hg10 mi
3:00 am61 °FCool.3 mph88%29.95 "Hg6 mi
2:30 am63 °FMild.1 mph88%29.95 "Hg6 mi
2:00 am64 °FMild.3 mph88%29.98 "Hg6 mi
1:30 am64 °FMild.2 mph88%29.98 "Hg6 mi
1:00 am64 °FMild.5 mph88%29.98 "Hg6 mi
12:30 am66 °FClear.2 mph83%29.98 "Hg10 mi
12:00 am66 °FClear.3 mph83%29.98 "Hg10 mi
11:30 pm
Tue, Jun 22
68 °FMild.3 mph78%29.98 "Hg6 mi
11:00 pm70 °FClear.3 mph73%29.98 "Hg10 mi
10:30 pm70 °FPassing clouds.6 mph69%29.95 "HgN/A
10:00 pm72 °FClear.8 mph69%29.95 "Hg10 mi
9:30 pm73 °FPassing clouds.7 mph65%29.95 "HgN/A
9:00 pm75 °FPassing clouds.7 mph57%29.92 "HgN/A
8:30 pm77 °FPassing clouds.8 mph54%29.92 "HgN/A
8:00 pm79 °FPassing clouds.12 mph51%29.92 "HgN/A
7:30 pm81 °FPassing clouds.9 mph42%29.92 "HgN/A
7:00 pm81 °FPassing clouds.9 mph45%29.92 "HgN/A
6:30 pm81 °FPassing clouds.9 mph45%29.92 "HgN/A
6:00 pm81 °FPassing clouds.10 mph42%29.92 "HgN/A
5:30 pm82 °FPassing clouds.9 mph45%29.92 "HgN/A
5:00 pm82 °FPassing clouds.10 mph42%29.92 "HgN/A
4:30 pm84 °FPassing clouds.10 mph37%29.92 "HgN/A
4:00 pm84 °FPassing clouds.10 mph40%29.92 "HgN/A
Weather by CustomWeather, © 2021

See weather overview